Time;durP1;ratioP1;P1;durP2;ratioP2;P2;SDS_P1;SDS_P2;PMS_P1;PMS_P2;Temp;Humidity;BMP_temperature;BMP_pressure;BME280_temperature;BME280_humidity;BME280_pressure;Samples;Min_cycle;Max_cycle;Signal;HPM_P1;HPM_P2
2023/02/25 00:00:50;;;;;;;8.77;4.18;;;;;;;3.82;100.00;97860.22;5091579;28;20044;-79
2023/02/25 00:03:21;;;;;;;15.02;3.78;;;;;;;3.77;100.00;97867.97;5094875;28;20047;-79
2023/02/25 00:05:47;;;;;;;9.60;4.55;;;;;;;3.81;100.00;97872.00;5090453;28;20433;-79
2023/02/25 00:08:15;;;;;;;8.60;3.92;;;;;;;3.77;100.00;97869.84;5090778;28;20130;-79
2023/02/25 00:10:41;;;;;;;9.18;3.72;;;;;;;3.73;100.00;97861.25;5088885;28;20048;-79
2023/02/25 00:13:08;;;;;;;4.93;3.25;;;;;;;3.75;100.00;97878.06;5086216;28;20048;-79
2023/02/25 00:15:35;;;;;;;8.50;4.05;;;;;;;3.80;100.00;97874.88;5095652;28;20044;-80
2023/02/25 00:18:01;;;;;;;9.82;3.80;;;;;;;3.74;100.00;97862.94;5091809;28;20042;-80
2023/02/25 00:20:29;;;;;;;11.60;3.58;;;;;;;3.81;100.00;97879.22;5089786;28;20054;-79
2023/02/25 00:22:56;;;;;;;7.85;3.22;;;;;;;3.84;100.00;97879.72;5088395;28;20048;-79
2023/02/25 00:25:23;;;;;;;6.95;3.65;;;;;;;3.84;100.00;97881.56;5098650;28;20055;-79
2023/02/25 00:27:49;;;;;;;11.90;3.55;;;;;;;3.72;100.00;97868.50;5091733;28;20070;-79
2023/02/25 00:30:16;;;;;;;7.13;4.18;;;;;;;3.82;100.00;97879.03;5093342;28;20475;-79
2023/02/25 00:32:43;;;;;;;11.10;4.40;;;;;;;3.86;100.00;97875.00;5089060;28;20054;-80
2023/02/25 00:35:11;;;;;;;8.20;4.18;;;;;;;3.95;100.00;97891.94;5089541;28;20048;-79
2023/02/25 00:37:39;;;;;;;6.60;3.30;;;;;;;3.89;100.00;97881.88;5088659;28;20143;-79
2023/02/25 00:40:13;;;;;;;7.63;3.58;;;;;;;3.86;100.00;97896.50;5090832;28;20089;-79
2023/02/25 00:42:40;;;;;;;12.93;4.07;;;;;;;3.83;100.00;97902.22;5089069;28;20079;-79
2023/02/25 00:45:08;;;;;;;7.07;3.47;;;;;;;3.91;100.00;97904.06;5093077;28;20080;-79
2023/02/25 00:47:37;;;;;;;6.70;3.45;;;;;;;3.78;100.00;97885.78;5089816;28;20054;-79
2023/02/25 00:50:05;;;;;;;3.47;2.75;;;;;;;3.79;100.00;97906.28;5092026;28;20109;-79
2023/02/25 00:52:33;;;;;;;5.95;2.83;;;;;;;3.77;100.00;97913.69;5087645;28;20056;-79
2023/02/25 00:55:01;;;;;;;8.85;3.72;;;;;;;3.67;100.00;97899.59;5089165;28;20555;-79
2023/02/25 00:57:28;;;;;;;6.82;3.60;;;;;;;3.57;100.00;97874.75;5088155;28;20106;-79
2023/02/25 00:59:54;;;;;;;9.77;3.95;;;;;;;3.68;100.00;97901.28;5089583;28;20043;-79
2023/02/25 01:02:21;;;;;;;9.07;4.43;;;;;;;3.59;100.00;97887.00;5088578;28;20505;-79
2023/02/25 01:04:48;;;;;;;6.15;3.17;;;;;;;3.59;100.00;97886.19;5094670;28;20415;-79
2023/02/25 01:07:15;;;;;;;6.57;3.42;;;;;;;3.52;100.00;97878.81;5088723;28;20044;-79
2023/02/25 01:09:41;;;;;;;8.77;4.05;;;;;;;3.46;100.00;97867.91;5092916;28;20048;-79
2023/02/25 01:12:09;;;;;;;9.70;3.55;;;;;;;3.46;100.00;97862.53;5088071;28;20079;-79
2023/02/25 01:14:36;;;;;;;9.68;3.60;;;;;;;3.51;100.00;97882.50;5088408;28;20487;-79
2023/02/25 01:17:02;;;;;;;7.72;4.00;;;;;;;3.61;100.00;97878.78;5088864;28;20044;-79
2023/02/25 01:19:29;;;;;;;8.18;3.88;;;;;;;3.63;100.00;97895.56;5090604;28;20052;-79
2023/02/25 01:21:57;;;;;;;6.25;3.40;;;;;;;3.46;100.00;97867.91;5094636;28;20109;-79
2023/02/25 01:24:26;;;;;;;5.95;3.03;;;;;;;3.53;100.00;97877.78;5099882;28;20040;-80
2023/02/25 01:26:56;;;;;;;12.38;5.15;;;;;;;3.44;100.00;97869.94;5088456;28;20131;-79
2023/02/25 01:29:26;;;;;;;8.98;4.07;;;;;;;3.58;100.00;97881.81;5087244;28;20055;-79
2023/02/25 01:31:54;;;;;;;12.73;3.90;;;;;;;3.55;100.00;97901.78;5093077;28;20051;-79
2023/02/25 01:34:22;;;;;;;12.73;3.90;;;;;;;3.49;100.00;97897.97;5086575;28;20067;-79
2023/02/25 01:36:49;;;;;;;7.40;3.97;;;;;;;3.63;100.00;97903.63;5089166;28;20498;-79
2023/02/25 01:39:18;;;;;;;8.95;4.30;;;;;;;3.44;100.00;97876.13;5089602;28;20054;-79
2023/02/25 01:41:47;;;;;;;6.53;3.42;;;;;;;3.60;100.00;97902.13;5090246;28;20048;-79
2023/02/25 01:44:16;;;;;;;5.33;3.30;;;;;;;3.59;100.00;97921.94;5091817;28;20051;-79
2023/02/25 01:46:45;;;;;;;8.60;3.47;;;;;;;3.41;100.00;97899.81;5091611;28;20657;-79
2023/02/25 01:49:15;;;;;;;8.63;2.85;;;;;;;3.56;100.00;97922.28;5092183;28;20056;-78
2023/02/25 01:51:44;;;;;;;4.55;2.53;;;;;;;3.60;100.00;97930.84;5090891;28;20056;-78
2023/02/25 01:54:12;;;;;;;12.52;3.35;;;;;;;3.56;100.00;97927.66;5092298;28;20418;-79
2023/02/25 01:56:42;;;;;;;4.47;3.00;;;;;;;3.46;100.00;97932.38;5096646;28;20047;-79
2023/02/25 01:59:09;;;;;;;3.22;2.20;;;;;;;3.45;100.00;97914.59;5100722;28;20052;-79
2023/02/25 02:01:38;;;;;;;4.85;2.13;;;;;;;3.54;100.00;97930.53;5088701;28;20055;-79
2023/02/25 02:04:09;;;;;;;2.75;2.08;;;;;;;3.50;100.00;97931.03;5105161;28;20040;-79
2023/02/25 02:06:38;;;;;;;8.38;2.70;;;;;;;3.59;100.00;97929.19;5098483;28;20044;-79
2023/02/25 02:09:08;;;;;;;7.65;2.65;;;;;;;3.53;100.00;97934.22;5093606;28;20039;-79
2023/02/25 02:11:34;;;;;;;6.88;3.10;;;;;;;3.47;100.00;97924.16;5098980;28;20044;-79
2023/02/25 02:14:03;;;;;;;4.05;2.53;;;;;;;3.52;100.00;97920.94;5094901;28;20052;-79
2023/02/25 02:16:57;;;;;;;5.05;2.45;;;;;;;3.48;100.00;97916.94;5093661;28;20048;-79
2023/02/25 02:19:39;;;;;;;6.45;3.38;;;;;;;3.45;100.00;97907.38;5099130;28;20048;-79
2023/02/25 02:22:12;;;;;;;9.02;2.75;;;;;;;3.51;100.00;97901.31;5085240;28;20052;-79
2023/02/25 02:25:20;;;;;;;5.40;2.83;;;;;;;3.59;100.00;97926.50;5092308;28;20048;-79
2023/02/25 02:28:06;;;;;;;7.10;2.50;;;;;;;3.45;100.00;97910.06;5070740;28;20098;-79
2023/02/25 02:30:42;;;;;;;6.82;2.28;;;;;;;3.38;100.00;97919.78;5093554;28;20514;-79
2023/02/25 02:33:17;;;;;;;8.18;2.50;;;;;;;3.34;100.00;97937.25;5094626;28;20052;-79
2023/02/25 02:35:51;;;;;;;6.40;1.98;;;;;;;3.16;100.00;97924.84;5107279;28;20463;-79
2023/02/25 02:38:25;;;;;;;2.25;1.42;;;;;;;3.17;100.00;97939.13;5115449;28;20403;-78
2023/02/25 02:41:06;;;;;;;4.53;1.58;;;;;;;3.01;100.00;97935.44;5098371;28;20130;-79
2023/02/25 02:43:40;;;;;;;9.15;2.33;;;;;;;2.98;100.00;97942.97;5101519;28;20052;-78
2023/02/25 02:46:14;;;;;;;3.42;1.83;;;;;;;3.13;100.00;97957.44;5100296;28;20050;-78
2023/02/25 02:48:47;;;;;;;4.72;1.70;;;;;;;3.11;100.00;97966.66;5105233;28;20052;-78
2023/02/25 02:51:19;;;;;;;2.80;1.60;;;;;;;3.05;100.00;97965.47;5101380;28;20491;-78
2023/02/25 02:53:50;;;;;;;6.07;2.10;;;;;;;3.05;100.00;97961.94;5093591;28;20484;-78
2023/02/25 02:56:20;;;;;;;10.27;1.85;;;;;;;3.07;100.00;97962.59;5096305;28;20036;-79
2023/02/25 02:58:53;;;;;;;7.82;2.10;;;;;;;2.96;100.00;97961.09;5101344;28;20040;-79
2023/02/25 03:01:25;;;;;;;9.02;2.88;;;;;;;3.07;100.00;97973.34;5094309;28;20044;-79
2023/02/25 03:03:59;;;;;;;7.72;2.28;;;;;;;2.87;100.00;97960.22;5092598;28;20044;-79
2023/02/25 03:06:31;;;;;;;11.20;2.38;;;;;;;2.93;100.00;97967.63;5100596;28;20047;-79
2023/02/25 03:09:04;;;;;;;14.60;3.13;;;;;;;3.01;100.00;97978.38;5111839;28;20093;-78
2023/02/25 03:11:31;;;;;;;5.63;2.28;;;;;;;3.07;100.00;97976.88;5108112;28;20050;-79
2023/02/25 03:13:58;;;;;;;5.35;2.22;;;;;;;2.93;100.00;97953.38;5093278;28;20105;-79
2023/02/25 03:16:28;;;;;;;4.45;1.73;;;;;;;3.01;100.00;97980.22;5094515;28;20048;-78
2023/02/25 03:19:01;;;;;;;10.48;2.40;;;;;;;3.11;100.00;97982.75;5094147;28;20056;-79
2023/02/25 03:21:34;;;;;;;7.10;2.60;;;;;;;3.10;100.00;97986.44;5088751;28;20044;-79
2023/02/25 03:24:04;;;;;;;6.70;2.05;;;;;;;2.99;100.00;97976.88;5091905;28;20048;-78
2023/02/25 03:26:33;;;;;;;8.20;3.03;;;;;;;2.94;100.00;97972.00;5098376;28;20052;-79
2023/02/25 03:28:59;;;;;;;5.45;2.67;;;;;;;2.96;100.00;97978.03;5093429;28;20070;-79
2023/02/25 03:31:30;;;;;;;8.68;2.13;;;;;;;2.91;100.00;97977.69;5093646;28;20051;-78
2023/02/25 03:34:02;;;;;;;5.95;2.95;;;;;;;2.87;100.00;97978.19;5097761;28;20058;-78
2023/02/25 03:36:32;;;;;;;7.55;2.92;;;;;;;2.92;100.00;97973.16;5094811;28;20059;-78
2023/02/25 03:39:03;;;;;;;5.32;2.22;;;;;;;2.82;100.00;97958.03;5098167;28;20273;-78
2023/02/25 03:41:34;;;;;;;9.80;2.20;;;;;;;2.83;100.00;97959.72;5093859;28;20146;-79
2023/02/25 03:44:04;;;;;;;11.18;2.95;;;;;;;2.96;100.00;97983.41;5092367;28;20056;-78
2023/02/25 03:46:33;;;;;;;8.68;2.70;;;;;;;2.90;100.00;97992.13;5093596;28;20056;-79
2023/02/25 03:49:03;;;;;;;3.75;2.03;;;;;;;2.92;100.00;97994.63;5097756;28;20265;-79
2023/02/25 03:51:35;;;;;;;6.70;2.78;;;;;;;2.75;100.00;97973.13;5091509;28;20051;-79
2023/02/25 03:54:02;;;;;;;7.47;3.03;;;;;;;2.71;100.00;97977.16;5093232;28;20041;-79
2023/02/25 03:56:28;;;;;;;7.15;3.33;;;;;;;2.59;100.00;97973.06;5101953;28;20047;-79
2023/02/25 03:58:55;;;;;;;8.57;3.28;;;;;;;2.53;100.00;97966.53;5094493;28;20054;-78
2023/02/25 04:01:28;;;;;;;4.85;2.92;;;;;;;2.61;100.00;97996.06;5097649;28;20144;-78
2023/02/25 04:03:54;;;;;;;7.78;2.85;;;;;;;2.47;100.00;97994.84;5093653;28;20127;-79
2023/02/25 04:06:23;;;;;;;11.38;2.65;;;;;;;2.51;100.00;98002.56;5093075;28;20052;-79
2023/02/25 04:08:51;;;;;;;14.40;3.60;;;;;;;2.48;100.00;97990.31;5099180;28;20476;-78
2023/02/25 04:11:18;;;;;;;7.35;2.88;;;;;;;2.60;100.00;98017.69;5093101;28;20059;-79
2023/02/25 04:13:44;;;;;;;7.95;2.90;;;;;;;2.35;100.00;98000.66;5097332;28;20052;-79
2023/02/25 04:16:11;;;;;;;7.85;3.22;;;;;;;2.43;100.00;98009.59;5093592;28;20056;-78
2023/02/25 04:18:39;;;;;;;10.27;3.00;;;;;;;2.27;100.00;97980.88;5085793;28;20101;-78
2023/02/25 04:21:06;;;;;;;20.25;3.35;;;;;;;2.32;100.00;98020.63;5098160;28;20047;-79
2023/02/25 04:23:35;;;;;;;8.98;2.60;;;;;;;2.21;100.00;98007.47;5101139;28;20064;-78
2023/02/25 04:26:02;;;;;;;6.78;2.67;;;;;;;2.29;100.00;98029.81;5091716;28;20487;-78
2023/02/25 04:28:29;;;;;;;6.65;2.78;;;;;;;2.22;100.00;98018.03;5093039;28;20040;-79
2023/02/25 04:30:55;;;;;;;8.45;3.00;;;;;;;2.31;100.00;98021.59;5091743;28;20044;-79
2023/02/25 04:33:22;;;;;;;5.70;2.83;;;;;;;2.23;100.00;98013.50;5097176;28;20043;-79
2023/02/25 04:35:48;;;;;;;3.90;2.30;;;;;;;2.34;100.00;98029.34;5092480;28;20048;-79
2023/02/25 04:38:15;;;;;;;4.18;2.28;;;;;;;2.32;100.00;98030.47;5092072;28;20044;-79
2023/02/25 04:40:43;;;;;;;7.03;2.42;;;;;;;2.34;100.00;98021.28;5101786;28;20553;-78
2023/02/25 04:43:09;;;;;;;4.90;2.47;;;;;;;2.32;100.00;98042.06;5093340;28;20087;-79
2023/02/25 04:45:36;;;;;;;10.82;2.30;;;;;;;2.15;100.00;98008.13;5099410;28;20461;-79
2023/02/25 04:48:02;;;;;;;8.88;2.20;;;;;;;2.26;100.00;98027.44;5096070;28;20058;-78
2023/02/25 04:50:29;;;;;;;5.65;2.25;;;;;;;2.19;100.00;98009.50;5092111;28;20050;-78
2023/02/25 04:52:57;;;;;;;6.30;2.03;;;;;;;2.43;100.00;98032.91;5090383;28;20514;-79
2023/02/25 04:55:23;;;;;;;5.38;2.15;;;;;;;2.43;100.00;98039.09;5095243;28;20051;-79
2023/02/25 04:57:51;;;;;;;7.75;2.05;;;;;;;2.51;100.00;98034.78;5103076;28;20047;-79
2023/02/25 05:00:20;;;;;;;12.63;2.50;;;;;;;2.39;100.00;98040.41;5100031;28;20053;-78
2023/02/25 05:02:47;;;;;;;6.30;1.30;;;;;;;2.44;100.00;98048.84;5090916;28;20048;-79
2023/02/25 05:05:15;;;;;;;2.78;1.40;;;;;;;2.37;100.00;98037.06;5088314;28;20052;-79
2023/02/25 05:07:43;;;;;;;5.55;1.92;;;;;;;2.35;100.00;98011.38;5091726;28;20048;-79
2023/02/25 05:10:13;;;;;;;7.18;1.52;;;;;;;2.50;100.00;98036.63;5094589;28;20048;-78
2023/02/25 05:12:40;;;;;;;2.58;1.65;;;;;;;2.36;100.00;98021.13;5088114;28;20491;-78
2023/02/25 05:15:09;;;;;;;8.23;1.75;;;;;;;2.51;100.00;98034.78;5093795;28;20409;-79
2023/02/25 05:17:36;;;;;;;2.58;1.52;;;;;;;2.44;100.00;98024.69;5091756;28;20056;-79
2023/02/25 05:20:06;;;;;;;4.97;1.67;;;;;;;2.53;100.00;98040.81;5098073;28;20051;-79
2023/02/25 05:22:33;;;;;;;9.02;1.80;;;;;;;2.47;100.00;98032.41;5090552;28;20552;-79
2023/02/25 05:25:00;;;;;;;5.60;1.13;;;;;;;2.58;100.00;98033.13;5093489;28;20517;-79
2023/02/25 05:27:26;;;;;;;6.47;1.77;;;;;;;2.43;100.00;98023.00;5092064;28;20058;-78
2023/02/25 05:29:53;;;;;;;3.15;1.23;;;;;;;2.55;100.00;98036.13;5097184;28;20058;-79
2023/02/25 05:32:21;;;;;;;5.25;1.70;;;;;;;2.39;100.00;98002.84;5094765;28;20498;-78
2023/02/25 05:34:47;;;;;;;6.32;1.50;;;;;;;2.52;100.00;98013.16;5091621;28;20059;-79
2023/02/25 05:37:14;;;;;;;5.55;1.73;;;;;;;2.38;100.00;97997.66;5092940;28;20052;-79
2023/02/25 05:39:40;;;;;;;10.50;2.60;;;;;;;2.55;100.00;98028.91;5089749;28;20055;-79
2023/02/25 05:42:07;;;;;;;2.53;1.70;;;;;;;2.45;99.49;98006.75;5089318;28;20051;-78
2023/02/25 05:44:34;;;;;;;4.88;1.70;;;;;;;2.58;97.94;98027.75;5089594;28;20173;-79
2023/02/25 05:47:00;;;;;;;4.88;1.35;;;;;;;2.46;95.18;97997.69;5096438;28;20384;-78
2023/02/25 05:49:28;;;;;;;6.43;1.65;;;;;;;2.51;98.71;98005.25;5092201;28;20055;-79
2023/02/25 05:51:55;;;;;;;2.25;1.02;;;;;;;2.60;96.57;98028.44;5089048;28;20044;-78
2023/02/25 05:54:21;;;;;;;2.38;0.98;;;;;;;2.45;96.35;98010.28;5093397;28;21347;-78
2023/02/25 05:56:51;;;;;;;4.28;1.23;;;;;;;2.44;95.86;98007.75;5106073;28;20055;-78
2023/02/25 05:59:18;;;;;;;5.78;0.90;;;;;;;2.62;95.80;98043.38;5096981;28;20524;-76
2023/02/25 06:01:45;;;;;;;4.40;1.20;;;;;;;2.49;97.98;98026.88;5095203;28;20050;-77
2023/02/25 06:04:11;;;;;;;7.47;1.80;;;;;;;2.50;95.81;98023.22;5090046;28;20434;-77
2023/02/25 06:06:40;;;;;;;4.18;1.70;;;;;;;2.44;96.42;98027.38;5091576;28;20048;-78
2023/02/25 06:09:08;;;;;;;4.93;1.40;;;;;;;2.42;95.99;98020.47;5090879;28;20058;-78
2023/02/25 06:11:35;;;;;;;10.48;1.65;;;;;;;2.41;95.26;98027.69;5092422;28;20518;-79
2023/02/25 06:14:02;;;;;;;7.90;2.63;;;;;;;2.56;94.41;98038.66;5089917;28;20052;-79
2023/02/25 06:16:30;;;;;;;3.83;1.58;;;;;;;2.53;94.04;98035.44;5091758;28;20126;-78
2023/02/25 06:18:59;;;;;;;7.18;1.92;;;;;;;2.45;94.27;98029.06;5092664;28;20089;-79
2023/02/25 06:21:26;;;;;;;7.15;2.20;;;;;;;2.45;92.59;98036.25;5089421;28;20545;-78
2023/02/25 06:23:54;;;;;;;4.05;1.50;;;;;;;2.58;92.44;98059.97;5089842;28;20048;-78
2023/02/25 06:26:21;;;;;;;3.30;1.42;;;;;;;2.50;93.17;98042.00;5089643;28;20040;-79
2023/02/25 06:28:48;;;;;;;4.28;1.00;;;;;;;2.54;92.93;98047.88;5091525;28;20076;-79
2023/02/25 06:31:16;;;;;;;6.40;2.13;;;;;;;2.44;93.74;98032.75;5088326;28;20505;-79
2023/02/25 06:33:44;;;;;;;5.20;1.60;;;;;;;2.43;92.79;98033.72;5090136;28;20052;-78
2023/02/25 06:36:11;;;;;;;4.47;1.73;;;;;;;2.54;91.51;98059.44;5091151;28;20064;-79
2023/02/25 06:38:37;;;;;;;5.93;1.40;;;;;;;2.58;92.78;98049.22;5082378;28;20058;-79
2023/02/25 06:41:08;;;;;;;6.72;1.42;;;;;;;2.66;93.91;98046.56;5090294;28;20047;-79
2023/02/25 06:43:35;;;;;;;9.63;1.17;;;;;;;2.50;90.83;98027.72;5092307;28;20051;-79
2023/02/25 06:46:04;;;;;;;7.07;1.48;;;;;;;2.60;91.11;98044.53;5090433;28;20450;-79
2023/02/25 06:48:31;;;;;;;3.85;1.35;;;;;;;2.46;91.72;98025.34;5089658;28;20052;-79
2023/02/25 06:50:57;;;;;;;5.07;1.17;;;;;;;2.48;90.90;98031.41;5090672;28;20405;-78
2023/02/25 06:53:24;;;;;;;2.75;1.02;;;;;;;2.53;92.23;98048.84;5089850;28;20048;-79
2023/02/25 06:55:50;;;;;;;4.60;1.30;;;;;;;2.51;91.26;98048.19;5094705;28;20499;-79
2023/02/25 06:58:18;;;;;;;3.20;1.13;;;;;;;2.54;92.22;98059.44;5096407;28;20055;-79
2023/02/25 07:00:45;;;;;;;11.32;3.53;;;;;;;2.51;93.53;98064.28;5090122;28;20052;-79
2023/02/25 07:03:11;;;;;;;5.80;1.45;;;;;;;2.52;91.14;98060.59;5089155;28;20502;-79
2023/02/25 07:05:38;;;;;;;8.52;1.15;;;;;;;2.70;90.25;98087.34;5094710;28;20052;-79
2023/02/25 07:08:05;;;;;;;6.00;2.33;;;;;;;2.70;91.72;98088.19;5099659;28;20039;-79
2023/02/25 07:10:32;;;;;;;4.07;1.85;;;;;;;2.61;90.85;98065.00;5091605;28;20052;-79
2023/02/25 07:13:01;;;;;;;8.30;1.52;;;;;;;2.69;90.81;98086.50;5094570;28;20044;-78
2023/02/25 07:15:29;;;;;;;5.07;1.20;;;;;;;2.70;90.98;98082.00;5084416;28;20049;-78
2023/02/25 07:17:56;;;;;;;5.78;1.27;;;;;;;2.78;90.57;98106.16;5094392;28;20079;-79
2023/02/25 07:20:22;;;;;;;9.70;2.85;;;;;;;2.61;90.50;98089.16;5097980;28;20040;-79
2023/02/25 07:22:49;;;;;;;12.02;4.57;;;;;;;2.86;91.06;98105.34;5092760;28;20476;-79
2023/02/25 07:25:15;;;;;;;11.07;4.45;;;;;;;2.91;90.38;98103.03;5095296;28;20530;-78
2023/02/25 07:27:45;;;;;;;15.10;4.95;;;;;;;2.75;88.58;98076.97;5096881;28;20052;-78
2023/02/25 07:30:13;;;;;;;26.15;7.03;;;;;;;2.81;88.06;98098.63;5094046;28;20052;-78
2023/02/25 07:32:41;;;;;;;60.55;14.02;;;;;;;2.74;88.84;98073.44;5100189;28;20925;-79
2023/02/25 07:35:09;;;;;;;25.63;8.20;;;;;;;2.74;89.93;98068.09;5106881;28;20054;-79
2023/02/25 07:37:36;;;;;;;6.80;1.98;;;;;;;2.76;90.11;98062.56;5094470;28;20063;-79
2023/02/25 07:40:03;;;;;;;4.25;1.92;;;;;;;2.80;89.41;98072.81;5094639;28;20076;-78
2023/02/25 07:42:30;;;;;;;3.70;1.70;;;;;;;2.81;nan;98063.72;5104887;28;20048;-79
2023/02/25 07:44:56;;;;;;;2.15;1.40;;;;;;;2.81;91.02;98063.72;5113910;28;20306;-78
2023/02/25 07:47:23;;;;;;;4.43;2.08;;;;;;;2.72;91.56;98058.50;5112219;28;20063;-79
2023/02/25 07:49:51;;;;;;;3.67;1.25;;;;;;;2.76;92.81;98062.56;5113421;28;20052;-79
2023/02/25 07:52:17;;;;;;;3.30;1.20;;;;;;;2.89;93.85;98075.50;5102673;28;20058;-79
2023/02/25 07:54:44;;;;;;;7.50;1.23;;;;;;;2.76;92.88;98057.19;5093243;28;20056;-79
2023/02/25 07:57:10;;;;;;;3.90;1.85;;;;;;;2.88;93.38;98096.16;5093762;28;20567;-79
2023/02/25 07:59:37;;;;;;;2.22;1.35;;;;;;;2.73;95.96;98071.75;5092315;28;20052;-79
2023/02/25 08:02:04;;;;;;;5.45;1.88;;;;;;;2.85;94.26;98090.28;5107645;28;20234;-79
2023/02/25 08:04:31;;;;;;;10.40;1.77;;;;;;;2.83;92.17;98074.28;5093732;28;20048;-79
2023/02/25 08:07:00;;;;;;;4.57;1.63;;;;;;;2.83;92.15;98060.88;5094137;28;20044;-79
2023/02/25 08:09:27;;;;;;;3.45;1.55;;;;;;;2.80;90.93;98059.38;5092862;28;20044;-79
2023/02/25 08:11:54;;;;;;;7.97;1.40;;;;;;;2.89;88.92;98073.69;5092845;28;20055;-79
2023/02/25 08:14:21;;;;;;;3.45;1.30;;;;;;;2.89;91.05;98052.19;5092465;28;20051;-79
2023/02/25 08:16:48;;;;;;;3.72;1.70;;;;;;;3.08;90.30;98080.59;5095875;28;20044;-79
2023/02/25 08:19:14;;;;;;;10.15;1.90;;;;;;;3.00;89.35;98068.00;5092712;28;20059;-79
2023/02/25 08:21:41;;;;;;;5.78;1.98;;;;;;;3.16;90.09;98101.25;5092809;28;20113;-79
2023/02/25 08:24:09;;;;;;;15.20;5.55;;;;;;;3.17;88.17;98094.88;5095402;28;20071;-79
2023/02/25 08:26:36;;;;;;;7.30;2.88;;;;;;;3.18;87.34;98097.41;5092435;28;20055;-80
2023/02/25 08:29:03;;;;;;;4.70;1.67;;;;;;;3.27;88.27;98103.66;5093094;28;20060;-79
2023/02/25 08:31:30;;;;;;;1.83;1.58;;;;;;;3.31;87.33;98099.63;5092508;28;20533;-79
2023/02/25 08:33:58;;;;;;;2.60;1.30;;;;;;;3.26;84.43;98091.22;5099060;28;20059;-79
2023/02/25 08:36:26;;;;;;;2.67;1.10;;;;;;;3.26;84.60;98071.56;5112820;28;20056;-79
2023/02/25 08:38:55;;;;;;;2.97;1.45;;;;;;;3.30;83.28;98064.88;5103080;28;20056;-79
2023/02/25 08:41:25;;;;;;;3.83;1.40;;;;;;;3.39;82.54;98076.44;5092103;28;20048;-80
2023/02/25 08:43:54;;;;;;;1.63;1.30;;;;;;;3.38;83.50;98070.25;5090934;28;20302;-79
2023/02/25 08:46:21;;;;;;;11.55;2.28;;;;;;;3.43;81.43;98078.63;5087003;28;20071;-79
2023/02/25 08:48:49;;;;;;;2.67;1.60;;;;;;;3.53;80.55;98095.44;5090102;28;20051;-79
2023/02/25 08:51:15;;;;;;;3.97;1.23;;;;;;;3.51;78.72;98088.59;5091890;28;20483;-79
2023/02/25 08:53:42;;;;;;;2.97;1.20;;;;;;;3.61;78.37;98097.31;5086631;28;20044;-79
2023/02/25 08:56:10;;;;;;;7.22;1.42;;;;;;;3.47;78.38;98068.41;5097952;28;20483;-79
2023/02/25 08:58:39;;;;;;;4.53;1.08;;;;;;;3.58;77.40;98086.06;5094491;28;20048;-79
2023/02/25 09:01:11;;;;;;;5.20;1.73;;;;;;;3.71;79.28;98102.53;5092216;28;20058;-79
2023/02/25 09:03:38;;;;;;;2.75;1.10;;;;;;;3.72;80.02;98096.16;5098475;28;20403;-79
2023/02/25 09:06:05;;;;;;;3.90;1.08;;;;;;;3.62;79.11;98080.19;5094982;28;20410;-80
2023/02/25 09:08:31;;;;;;;8.25;1.60;;;;;;;3.66;78.75;98072.63;5098000;28;20047;-79
2023/02/25 09:10:58;;;;;;;2.05;1.05;;;;;;;3.84;76.65;98108.25;5091801;28;20427;-80
2023/02/25 09:13:24;;;;;;;7.30;1.45;;;;;;;3.68;76.79;98101.00;5089953;28;20044;-79
2023/02/25 09:15:57;;;;;;;6.80;1.35;;;;;;;3.74;78.13;98093.31;5098107;28;20056;-79
2023/02/25 09:18:24;;;;;;;6.30;1.95;;;;;;;3.87;77.62;98099.03;5083465;28;20074;-80
2023/02/25 09:20:50;;;;;;;1.05;0.75;;;;;;;3.77;76.38;98101.88;5094537;28;20048;-80
2023/02/25 09:23:17;;;;;;;6.82;1.30;;;;;;;3.66;76.59;98078.00;5093363;28;20048;-79
2023/02/25 09:25:44;;;;;;;2.70;1.05;;;;;;;3.68;74.93;98084.06;5097825;28;20067;-80
2023/02/25 09:28:11;;;;;;;5.55;1.25;;;;;;;3.86;74.33;98103.53;5098418;28;20521;-80
2023/02/25 09:30:37;;;;;;;1.27;1.13;;;;;;;4.00;73.28;98104.69;5098733;28;20054;-79
2023/02/25 09:33:05;;;;;;;9.20;1.33;;;;;;;3.98;75.12;98069.09;5097546;28;20044;-80
2023/02/25 09:35:32;;;;;;;4.32;1.77;;;;;;;4.11;75.94;98078.47;5093496;28;20052;-80
2023/02/25 09:37:58;;;;;;;5.13;2.30;;;;;;;4.22;73.35;98091.59;5097469;28;20044;-80
2023/02/25 09:40:25;;;;;;;5.78;2.28;;;;;;;4.21;73.56;98073.75;5069847;28;20094;-80
2023/02/25 09:43:02;;;;;;;5.22;1.52;;;;;;;4.31;72.16;98074.41;5095008;28;20060;-80
2023/02/25 09:45:32;;;;;;;2.65;0.90;;;;;;;4.30;69.58;98074.59;5097964;28;20484;-80
2023/02/25 09:48:13;;;;;;;3.92;0.77;;;;;;;4.14;67.50;98072.75;5089669;28;20044;-79
2023/02/25 09:50:46;;;;;;;4.32;0.70;;;;;;;4.25;68.98;98092.06;5084327;28;20064;-79
2023/02/25 09:53:18;;;;;;;2.22;0.63;;;;;;;4.13;67.07;98082.69;5090867;28;20446;-79
2023/02/25 09:55:48;;;;;;;4.68;0.90;;;;;;;4.21;69.41;98092.59;5095102;28;20509;-79
2023/02/25 09:58:30;;;;;;;3.40;1.10;;;;;;;4.14;69.40;98080.81;5083835;28;20048;-80
2023/02/25 10:01:04;;;;;;;3.85;1.00;;;;;;;4.29;68.63;98103.34;5088049;28;20060;-79
2023/02/25 10:03:47;;;;;;;1.60;0.98;;;;;;;4.38;68.55;98090.69;5091083;28;20051;-79
2023/02/25 10:06:20;;;;;;;1.92;1.00;;;;;;;4.29;68.52;98095.28;5072689;28;20049;-78
2023/02/25 10:08:55;;;;;;;2.08;1.10;;;;;;;4.30;68.67;98094.25;5073002;28;20071;-79
2023/02/25 10:11:32;;;;;;;2.50;1.00;;;;;;;4.26;67.92;98079.47;5077505;28;20051;-79
2023/02/25 10:14:07;;;;;;;0.95;0.90;;;;;;;4.37;67.73;98092.56;5092077;28;20055;-79
2023/02/25 10:16:45;;;;;;;3.28;0.88;;;;;;;4.52;69.02;98092.69;5091585;28;20051;-79
2023/02/25 10:19:27;;;;;;;5.22;0.85;;;;;;;4.55;67.22;98094.22;5090792;28;20059;-79
2023/02/25 10:22:18;;;;;;;4.43;2.00;;;;;;;4.50;66.35;98083.97;5090421;28;20415;-79
2023/02/25 10:24:49;;;;;;;2.92;1.10;;;;;;;4.41;65.76;98058.91;5090603;28;20471;-79
2023/02/25 10:27:20;;;;;;;2.22;0.95;;;;;;;4.65;66.01;98084.06;5089108;28;20054;-78
2023/02/25 10:29:51;;;;;;;6.82;1.13;;;;;;;4.72;65.09;98070.75;5096786;28;20515;-79
2023/02/25 10:32:21;;;;;;;3.80;1.10;;;;;;;4.89;65.78;98080.47;5091122;28;20380;-79
2023/02/25 10:34:50;;;;;;;3.15;0.70;;;;;;;4.95;65.84;98068.97;5098130;28;20051;-79
2023/02/25 10:37:21;;;;;;;3.95;1.08;;;;;;;4.93;64.96;98057.53;5092813;28;20055;-79
2023/02/25 10:39:49;;;;;;;7.00;1.55;;;;;;;5.16;66.09;98063.97;5089195;28;20105;-79
2023/02/25 10:42:16;;;;;;;8.98;1.30;;;;;;;5.27;65.67;98069.81;5096167;28;20774;-79
2023/02/25 10:44:44;;;;;;;3.53;1.05;;;;;;;5.24;65.41;98045.91;5097504;28;20081;-79
2023/02/25 10:47:16;;;;;;;3.95;1.67;;;;;;;5.43;66.13;98054.53;5091756;28;20052;-79
2023/02/25 10:50:20;;;;;;;1.35;0.95;;;;;;;5.21;64.99;98069.66;5091719;28;20040;-79
2023/02/25 10:53:00;;;;;;;1.75;1.20;;;;;;;4.88;68.26;98041.06;5090665;28;20428;-79
2023/02/25 10:55:51;;;;;;;6.70;1.55;;;;;;;4.72;67.52;98057.28;5097980;28;20109;-79
2023/02/25 10:58:27;;;;;;;3.60;0.90;;;;;;;4.50;68.28;98065.13;5101438;28;20052;-79
2023/02/25 11:00:58;;;;;;;3.75;1.05;;;;;;;4.58;69.95;98057.00;5102697;28;20127;-78
2023/02/25 11:03:26;;;;;;;5.03;1.95;;;;;;;4.70;70.92;98070.09;5103364;28;20494;-79
2023/02/25 11:06:06;;;;;;;3.58;1.00;;;;;;;4.63;70.20;98069.94;5096376;28;20079;-79
2023/02/25 11:08:35;;;;;;;3.83;0.77;;;;;;;4.50;72.31;98081.28;5098614;28;20048;-79
2023/02/25 11:11:04;;;;;;;3.00;1.08;;;;;;;4.43;72.71;98074.91;5090935;28;20051;-79
2023/02/25 11:13:34;;;;;;;1.65;0.93;;;;;;;4.40;71.84;98057.22;5091029;28;20051;-78
2023/02/25 11:16:05;;;;;;;1.25;0.70;;;;;;;4.54;72.22;98069.13;5096420;28;20487;-79
2023/02/25 11:18:33;;;;;;;2.58;0.88;;;;;;;4.63;72.10;98058.34;5094817;28;20058;-78
2023/02/25 11:21:02;;;;;;;2.50;1.42;;;;;;;4.89;71.12;98075.06;5104360;28;20059;-79
2023/02/25 11:23:34;;;;;;;8.55;1.25;;;;;;;4.87;72.26;98074.38;5099599;28;20044;-79
2023/02/25 11:26:05;;;;;;;4.53;1.33;;;;;;;4.66;71.94;98058.81;5098847;28;20052;-80
2023/02/25 11:28:37;;;;;;;6.32;1.35;;;;;;;4.73;72.05;98057.13;5100361;28;20139;-80
2023/02/25 11:31:08;;;;;;;4.20;1.35;;;;;;;4.59;73.28;98055.13;5103493;28;20411;-79
2023/02/25 11:33:37;;;;;;;5.20;1.35;;;;;;;4.61;72.79;98039.69;5096411;28;20052;-79
2023/02/25 11:36:05;;;;;;;3.97;0.93;;;;;;;4.79;73.63;98063.66;5093650;28;20048;-79
2023/02/25 11:38:34;;;;;;;5.43;1.40;;;;;;;4.79;73.28;98074.44;5097877;28;20056;-80
2023/02/25 11:41:03;;;;;;;10.70;1.80;;;;;;;4.59;74.68;98050.63;5093631;28;20147;-80
2023/02/25 11:43:38;;;;;;;4.70;1.33;;;;;;;4.56;73.44;98052.78;5096728;28;20158;-80
2023/02/25 11:46:08;;;;;;;4.20;1.50;;;;;;;4.66;75.28;98066.06;5100105;28;20183;-79